createdAt,value
2022-07-31T00:00:01.748Z,1003.05
2022-07-31T00:05:01.681Z,1003.11
2022-07-31T00:10:01.952Z,1002.97
2022-07-31T00:15:01.691Z,1002.95
2022-07-31T00:20:01.422Z,1002.87
2022-07-31T00:25:01.503Z,1002.91
2022-07-31T00:30:01.999Z,1002.85
2022-07-31T00:35:02.034Z,1002.88
2022-07-31T00:40:01.596Z,1002.81
2022-07-31T00:45:01.620Z,1002.82
2022-07-31T00:50:02.062Z,1002.74
2022-07-31T00:55:01.319Z,1002.67
2022-07-31T01:00:01.523Z,1002.59
2022-07-31T01:05:01.584Z,1002.52
2022-07-31T01:10:01.364Z,1002.48
2022-07-31T01:15:01.376Z,1002.47
2022-07-31T01:20:01.642Z,1002.45
2022-07-31T01:25:01.312Z,1002.45
2022-07-31T01:30:01.826Z,1002.39
2022-07-31T01:35:01.480Z,1002.41
2022-07-31T01:40:01.315Z,1002.33
2022-07-31T01:45:01.327Z,1002.35
2022-07-31T01:50:01.256Z,1002.3
2022-07-31T01:55:01.787Z,1002.21
2022-07-31T02:00:02.031Z,1002.19
2022-07-31T02:05:01.349Z,1002.21
2022-07-31T02:10:01.829Z,1002.22
2022-07-31T02:15:01.924Z,1002.24
2022-07-31T02:20:01.633Z,1002.22
2022-07-31T02:25:01.343Z,1002.26
2022-07-31T02:30:01.355Z,1002.24
2022-07-31T02:35:01.783Z,1002.17
2022-07-31T02:40:02.122Z,1002.16
2022-07-31T02:45:01.534Z,1002.19
2022-07-31T02:50:01.198Z,1002.17
2022-07-31T02:55:01.773Z,1002.17
2022-07-31T03:00:01.331Z,1002.13
2022-07-31T03:05:01.508Z,1002.1
2022-07-31T03:10:01.985Z,1002.1
2022-07-31T03:15:01.351Z,1002.05
2022-07-31T03:20:01.595Z,1002.01
2022-07-31T03:25:01.733Z,1001.99
2022-07-31T03:30:01.435Z,1002
2022-07-31T03:35:01.619Z,1001.98
2022-07-31T03:40:01.343Z,1001.96
2022-07-31T03:45:01.460Z,1002.02
2022-07-31T03:50:02.286Z,1002.3
2022-07-31T03:55:01.791Z,1002.25
2022-07-31T04:00:02.023Z,1002.32
2022-07-31T04:05:01.705Z,1002.32
2022-07-31T04:10:01.194Z,1002.29
2022-07-31T04:15:01.873Z,1002.28
2022-07-31T04:20:02.339Z,1002.26
2022-07-31T04:25:01.319Z,1002.29
2022-07-31T04:30:01.700Z,1002.32
2022-07-31T04:35:01.655Z,1002.26
2022-07-31T04:40:01.328Z,1002.24
2022-07-31T04:45:01.608Z,1002.21
2022-07-31T04:50:01.726Z,1002.28
2022-07-31T04:55:01.718Z,1002.27
2022-07-31T05:00:01.640Z,1002.24
2022-07-31T05:05:02.142Z,1002.26
2022-07-31T05:10:01.944Z,1002.25
2022-07-31T05:15:01.788Z,1002.23
2022-07-31T05:20:01.658Z,1002.32
2022-07-31T05:25:01.860Z,1002.27
2022-07-31T05:30:01.280Z,1002.3
2022-07-31T05:35:01.328Z,1002.34
2022-07-31T05:40:01.604Z,1002.4
2022-07-31T05:45:01.563Z,1002.37
2022-07-31T05:50:02.019Z,1002.41
2022-07-31T05:55:01.991Z,1002.4
2022-07-31T06:00:03.823Z,1002.35
2022-07-31T06:05:01.331Z,1002.32
2022-07-31T06:10:01.940Z,1002.31
2022-07-31T06:15:02.056Z,1002.33
2022-07-31T06:20:02.164Z,1002.32
2022-07-31T06:25:01.364Z,1002.33
2022-07-31T06:30:01.855Z,1002.33
2022-07-31T06:35:01.488Z,1002.32
2022-07-31T06:40:01.613Z,1002.29
2022-07-31T06:45:01.698Z,1002.36
2022-07-31T06:50:01.945Z,1002.39
2022-07-31T06:55:02.087Z,1002.34
2022-07-31T07:00:06.859Z,1002.37
2022-07-31T07:05:05.870Z,1002.33
2022-07-31T07:10:01.970Z,1002.26
2022-07-31T07:15:01.815Z,1002.26
2022-07-31T07:20:01.300Z,1002.34
2022-07-31T07:25:02.113Z,1002.27
2022-07-31T07:30:01.536Z,1002.33
2022-07-31T07:35:01.427Z,1002.27
2022-07-31T07:40:03.993Z,1002.22
2022-07-31T07:45:02.824Z,1002.16
2022-07-31T07:50:02.193Z,1002.21
2022-07-31T07:55:02.024Z,1002.17
2022-07-31T08:00:02.089Z,1002.08
2022-07-31T08:05:01.502Z,1002.04
2022-07-31T08:10:01.744Z,1002.02
2022-07-31T08:15:01.875Z,1002.06
2022-07-31T08:20:02.109Z,1002.05
2022-07-31T08:25:05.129Z,1001.91
2022-07-31T08:30:01.840Z,1001.93
2022-07-31T08:35:01.990Z,1001.92
2022-07-31T08:40:01.952Z,1001.91
2022-07-31T08:45:01.827Z,1001.91
2022-07-31T08:50:01.580Z,1001.95
2022-07-31T08:55:01.531Z,1001.84
2022-07-31T09:00:02.127Z,1001.85
2022-07-31T09:05:01.428Z,1001.86
2022-07-31T09:10:01.300Z,1001.86
2022-07-31T09:15:01.442Z,1001.85
2022-07-31T09:20:01.507Z,1001.78
2022-07-31T09:25:01.833Z,1001.78
2022-07-31T09:30:02.206Z,1001.8
2022-07-31T09:35:01.985Z,1001.8
2022-07-31T09:40:02.230Z,1001.75
2022-07-31T09:45:01.781Z,1001.75
2022-07-31T09:50:01.294Z,1001.68
2022-07-31T09:55:01.717Z,1001.67
2022-07-31T10:00:01.560Z,1001.65
2022-07-31T10:05:01.436Z,1001.61
2022-07-31T10:10:02.259Z,1001.52
2022-07-31T10:15:02.347Z,1001.52
2022-07-31T10:20:02.154Z,1001.65
2022-07-31T10:25:02.625Z,1001.78
2022-07-31T10:30:01.958Z,1001.52
2022-07-31T10:35:02.086Z,1001.44
2022-07-31T10:40:01.280Z,1001.41
2022-07-31T10:45:01.944Z,1001.32
2022-07-31T10:50:02.011Z,1001.21
2022-07-31T10:55:02.087Z,1001.25
2022-07-31T11:00:02.105Z,1001.25
2022-07-31T11:05:01.488Z,1001.2
2022-07-31T11:10:01.966Z,1001.15
2022-07-31T11:15:01.188Z,1001.13
2022-07-31T11:20:01.212Z,1001.17
2022-07-31T11:25:01.811Z,1001.08
2022-07-31T11:30:04.809Z,1001.1
2022-07-31T11:35:01.677Z,1001.01
2022-07-31T11:40:01.535Z,1001.05
2022-07-31T11:45:01.571Z,1000.95
2022-07-31T11:50:01.816Z,1001.03
2022-07-31T11:55:05.419Z,1001.05
2022-07-31T12:00:01.308Z,1000.97
2022-07-31T12:05:01.404Z,1000.93
2022-07-31T12:10:03.709Z,1000.95
2022-07-31T12:15:01.317Z,1000.9
2022-07-31T12:20:01.847Z,1000.88
2022-07-31T12:25:04.962Z,1000.85
2022-07-31T12:30:02.052Z,1000.75
2022-07-31T12:35:01.985Z,1000.69
2022-07-31T12:40:01.823Z,1000.73
2022-07-31T12:45:17.851Z,1000.58
2022-07-31T12:50:01.426Z,1000.52
2022-07-31T12:55:01.691Z,1000.51
2022-07-31T13:00:01.782Z,1000.48
2022-07-31T13:05:01.891Z,1000.46
2022-07-31T13:10:21.332Z,1000.42
2022-07-31T13:15:01.277Z,1000.38
2022-07-31T13:20:01.474Z,1000.41
2022-07-31T13:25:01.437Z,1000.3
2022-07-31T13:30:01.193Z,1000.18
2022-07-31T13:35:26.773Z,1000.12
2022-07-31T13:40:01.367Z,1000.09
2022-07-31T13:45:06.246Z,1000.03
2022-07-31T13:50:01.427Z,1000.07
2022-07-31T13:55:01.382Z,1000.09
2022-07-31T14:00:01.209Z,1000.03
2022-07-31T14:05:01.419Z,1000.03
2022-07-31T14:10:01.362Z,999.99
2022-07-31T14:15:01.826Z,999.93
2022-07-31T14:20:01.278Z,999.89
2022-07-31T14:25:01.584Z,999.76
2022-07-31T14:30:01.735Z,999.73
2022-07-31T14:35:07.452Z,999.76
2022-07-31T14:40:01.926Z,999.73
2022-07-31T14:45:01.386Z,999.75
2022-07-31T14:50:11.299Z,999.73
2022-07-31T14:55:02.126Z,999.77
2022-07-31T15:00:01.977Z,999.8
2022-07-31T15:06:37.815Z,999.81
2022-07-31T15:10:01.914Z,999.76
2022-07-31T15:15:01.672Z,999.74
2022-07-31T15:20:01.422Z,999.87
2022-07-31T15:25:02.022Z,999.85
2022-07-31T15:30:06.622Z,999.8
2022-07-31T15:35:01.582Z,999.76
2022-07-31T15:40:03.562Z,999.7
2022-07-31T15:45:01.722Z,999.65
2022-07-31T15:50:01.608Z,999.65
2022-07-31T16:00:01.640Z,999.64
2022-07-31T16:05:11.987Z,999.61
2022-07-31T16:10:14.792Z,999.63
2022-07-31T16:15:01.855Z,999.55
2022-07-31T16:20:01.445Z,999.57
2022-07-31T16:25:01.671Z,999.5
2022-07-31T16:30:02.616Z,999.46
2022-07-31T16:35:01.829Z,999.33
2022-07-31T16:40:01.162Z,999.41
2022-07-31T16:45:01.540Z,999.31
2022-07-31T16:50:01.462Z,999.37
2022-07-31T16:55:01.711Z,999.35
2022-07-31T17:00:01.991Z,999.32
2022-07-31T17:05:01.374Z,999.33
2022-07-31T17:10:01.590Z,999.39
2022-07-31T17:15:01.277Z,999.37
2022-07-31T17:20:01.539Z,999.35
2022-07-31T17:25:01.794Z,999.38
2022-07-31T17:30:01.543Z,999.45
2022-07-31T17:35:01.572Z,999.41
2022-07-31T17:40:01.586Z,999.47
2022-07-31T17:45:01.689Z,999.53
2022-07-31T17:50:01.695Z,999.56
2022-07-31T17:55:01.176Z,999.59
2022-07-31T18:00:01.805Z,999.64
2022-07-31T18:05:02.166Z,999.59
2022-07-31T18:10:01.363Z,999.67
2022-07-31T18:15:01.363Z,999.63
2022-07-31T18:20:01.472Z,999.72
2022-07-31T18:25:01.656Z,999.72
2022-07-31T18:30:01.696Z,999.73
2022-07-31T18:35:02.114Z,999.81
2022-07-31T18:40:01.256Z,999.9
2022-07-31T18:45:02.109Z,999.9
2022-07-31T18:50:59.052Z,999.93
2022-07-31T18:55:01.657Z,999.98
2022-07-31T19:00:01.153Z,999.96
2022-07-31T19:05:01.935Z,999.94
2022-07-31T19:10:01.371Z,999.99
2022-07-31T19:15:02.100Z,1000.07
2022-07-31T19:20:02.268Z,1000.1
2022-07-31T19:25:01.934Z,1000.11
2022-07-31T19:30:01.181Z,1000.17
2022-07-31T19:35:01.993Z,1000.18
2022-07-31T19:40:02.019Z,1000.23
2022-07-31T19:45:01.309Z,1000.21
2022-07-31T19:50:01.511Z,1000.27
2022-07-31T19:55:02.017Z,1000.27
2022-07-31T20:00:01.563Z,1000.31
2022-07-31T20:05:01.517Z,1000.37
2022-07-31T20:10:01.444Z,1000.41
2022-07-31T20:15:01.434Z,1000.5
2022-07-31T20:20:15.356Z,1000.53
2022-07-31T20:25:01.419Z,1000.59
2022-07-31T20:30:01.880Z,1000.62
2022-07-31T20:35:01.783Z,1000.66
2022-07-31T20:40:02.048Z,1000.69
2022-07-31T20:45:01.424Z,1000.75
2022-07-31T20:50:01.711Z,1000.83
2022-07-31T20:55:01.687Z,1000.8
2022-07-31T21:00:01.624Z,1000.81
2022-07-31T21:05:01.268Z,1000.8
2022-07-31T21:10:03.296Z,1000.79
2022-07-31T21:15:01.580Z,1000.78
2022-07-31T21:20:01.780Z,1000.8
2022-07-31T21:25:01.884Z,1000.83
2022-07-31T21:30:01.745Z,1000.84
2022-07-31T21:35:02.038Z,1000.87
2022-07-31T21:40:01.163Z,1000.93
2022-07-31T21:45:01.236Z,1000.98
2022-07-31T21:50:02.032Z,1001.01
2022-07-31T21:55:01.255Z,1001.02
2022-07-31T22:00:01.551Z,1001.06
2022-07-31T22:05:01.661Z,1001.09
2022-07-31T22:10:01.853Z,1001.07
2022-07-31T22:15:01.397Z,1001.07
2022-07-31T22:20:01.317Z,1001.06
2022-07-31T22:25:01.308Z,1001.08
2022-07-31T22:30:01.706Z,1001.09
2022-07-31T22:35:03.024Z,1001.12
2022-07-31T22:40:01.215Z,1001.17
2022-07-31T22:45:01.584Z,1001.13
2022-07-31T22:50:01.956Z,1001.19
2022-07-31T22:55:01.554Z,1001.17
2022-07-31T23:00:02.036Z,1001.21
2022-07-31T23:05:01.507Z,1001.21
2022-07-31T23:10:01.702Z,1001.21
2022-07-31T23:20:01.591Z,1001.21
2022-07-31T23:25:02.055Z,1001.3
2022-07-31T23:30:01.950Z,1001.27
2022-07-31T23:35:01.166Z,1001.24
2022-07-31T23:40:02.011Z,1001.2
2022-07-31T23:45:01.860Z,1001.26
2022-07-31T23:50:01.487Z,1001.3
2022-07-31T23:55:01.463Z,1001.21
